Terminal Aerodrome Forecast
Issued by NWS

Home | Current Version | Previous Version | Text Only | Print | Product List | Glossary On
Versions: 1 2 3 4 5 6 7 8 9 10 11 12 13 14 15 16 17 18 19 20 21 22 23 24
221
FTUS45 KRIW 231134
TAFBPI
TAF
KBPI 231134Z 2312/2412 VRB06KT P6SM SCT030 BKN070
     FM232000 12009KT P6SM VCSH SCT020 BKN035
     FM240400 02013KT P6SM VCSH SCT030 BKN045
     FM240900 03008KT P6SM -RASN SCT020 BKN030=

USA.gov is the U.S. government's official web portal to all federal, state and local government web resources and services.